Time;durP1;ratioP1;P1;durP2;ratioP2;P2;SDS_P1;SDS_P2;PMS_P1;PMS_P2;Temp;Humidity;BMP_temperature;BMP_pressure;BME280_temperature;BME280_humidity;BME280_pressure;Samples;Min_cycle;Max_cycle;Signal;HPM_P1;HPM_P2
2021/12/13 00:01:13;;;;;;;6.15;4.15;;;2.30;99.90;;;;;;5042420;28;20091;-75
2021/12/13 00:03:55;;;;;;;5.57;3.40;;;2.40;99.90;;;;;;5033692;28;20115;-75
2021/12/13 00:06:29;;;;;;;7.32;3.38;;;2.40;99.90;;;;;;5048903;28;20041;-75
2021/12/13 00:09:13;;;;;;;6.45;3.80;;;2.40;99.90;;;;;;5049855;28;20065;-75
2021/12/13 00:11:46;;;;;;;5.03;3.70;;;2.40;99.90;;;;;;5051451;28;20049;-75
2021/12/13 00:14:27;;;;;;;5.93;3.38;;;2.30;99.90;;;;;;5035765;28;20448;-75
2021/12/13 00:17:14;;;;;;;5.13;4.03;;;2.30;99.90;;;;;;5052444;28;20128;-75
2021/12/13 00:20:05;;;;;;;5.30;3.83;;;2.30;99.90;;;;;;5052869;28;20488;-75
2021/12/13 00:22:42;;;;;;;6.15;3.58;;;2.30;99.90;;;;;;5052578;28;20073;-75
2021/12/13 00:25:13;;;;;;;6.80;4.32;;;2.30;99.90;;;;;;5051545;28;20069;-75
2021/12/13 00:27:53;;;;;;;6.80;3.78;;;2.30;99.90;;;;;;5035508;28;20128;-75
2021/12/13 00:30:41;;;;;;;6.93;4.20;;;2.30;99.90;;;;;;5035551;28;20045;-75
2021/12/13 00:33:36;;;;;;;7.38;4.25;;;2.30;99.90;;;;;;5038237;28;20127;-75
2021/12/13 00:36:17;;;;;;;4.88;3.50;;;2.30;99.90;;;;;;5055988;28;20065;-75
2021/12/13 00:38:54;;;;;;;6.00;3.83;;;2.30;99.90;;;;;;5036664;28;20049;-75
2021/12/13 00:41:29;;;;;;;5.68;3.97;;;2.30;99.90;;;;;;5051321;28;20124;-75
2021/12/13 00:44:06;;;;;;;6.78;3.65;;;2.30;99.90;;;;;;5051276;28;20451;-75
2021/12/13 00:46:35;;;;;;;7.47;4.00;;;2.30;99.90;;;;;;5050648;28;20530;-75
2021/12/13 00:49:08;;;;;;;6.63;4.15;;;2.30;99.90;;;;;;5034454;28;20140;-75
2021/12/13 00:51:44;;;;;;;6.20;3.95;;;2.30;99.90;;;;;;5051084;28;20587;-75
2021/12/13 00:54:34;;;;;;;5.13;3.70;;;2.40;99.90;;;;;;5051079;28;20127;-75
2021/12/13 00:57:01;;;;;;;5.85;4.10;;;2.30;99.90;;;;;;5050160;28;20080;-75
2021/12/13 00:59:28;;;;;;;5.78;3.67;;;2.30;99.90;;;;;;5052056;28;20083;-74
2021/12/13 01:02:15;;;;;;;5.13;3.92;;;2.30;99.90;;;;;;5050565;28;20055;-75
2021/12/13 01:04:56;;;;;;;5.55;3.75;;;2.40;99.90;;;;;;5034422;28;20079;-75
2021/12/13 01:07:56;;;;;;;6.80;3.85;;;2.30;99.90;;;;;;5034442;28;20132;-75
2021/12/13 01:10:41;;;;;;;6.75;4.07;;;2.40;99.90;;;;;;5050472;28;20041;-74
2021/12/13 01:13:33;;;;;;;7.93;4.93;;;2.40;99.90;;;;;;5050482;28;20140;-75
2021/12/13 01:16:20;;;;;;;5.18;3.53;;;2.40;99.90;;;;;;5049985;28;20135;-75
2021/12/13 01:19:24;;;;;;;4.97;3.70;;;2.30;99.90;;;;;;5050576;28;20087;-75
2021/12/13 01:22:01;;;;;;;4.82;3.88;;;2.40;99.90;;;;;;5051244;28;20439;-74
2021/12/13 01:27:36;;;;;;;5.38;3.75;;;2.40;99.90;;;;;;5050117;28;20041;-74
2021/12/13 01:30:21;;;;;;;6.38;3.55;;;2.40;99.90;;;;;;5034582;28;20048;-74
2021/12/13 01:32:56;;;;;;;4.18;3.40;;;2.40;99.90;;;;;;5051413;28;20127;-75
2021/12/13 01:35:27;;;;;;;5.05;3.45;;;2.40;99.90;;;;;;5050276;28;20073;-75
2021/12/13 01:38:04;;;;;;;7.03;3.83;;;2.40;99.90;;;;;;5033818;28;20530;-75
2021/12/13 01:40:39;;;;;;;4.63;3.25;;;2.50;99.90;;;;;;5034464;28;20132;-75
2021/12/13 01:43:28;;;;;;;5.47;3.50;;;2.50;99.90;;;;;;5049777;28;20064;-75
2021/12/13 01:46:00;;;;;;;5.75;3.47;;;2.50;99.90;;;;;;5034050;28;20143;-75
2021/12/13 01:48:39;;;;;;;5.10;3.22;;;2.50;99.90;;;;;;5034391;28;20068;-75
2021/12/13 01:51:11;;;;;;;5.20;3.55;;;2.50;99.90;;;;;;5050048;28;20122;-75
2021/12/13 01:53:49;;;;;;;4.93;3.70;;;2.40;99.90;;;;;;5049692;28;20079;-75
2021/12/13 01:56:41;;;;;;;6.30;3.78;;;2.50;99.90;;;;;;5033748;28;20129;-75
2021/12/13 02:02:11;;;;;;;4.43;3.25;;;2.50;99.90;;;;;;5050687;28;20045;-75
2021/12/13 02:04:53;;;;;;;5.20;3.67;;;2.40;99.90;;;;;;5050378;28;20495;-75
2021/12/13 02:07:28;;;;;;;5.70;3.72;;;2.40;99.90;;;;;;5048778;28;20609;-74
2021/12/13 02:09:57;;;;;;;5.10;3.10;;;2.40;99.90;;;;;;5049278;28;20129;-75
2021/12/13 02:12:30;;;;;;;5.95;4.05;;;2.40;99.90;;;;;;5033226;28;20041;-75
2021/12/13 02:17:46;;;;;;;4.25;3.40;;;2.40;99.90;;;;;;5048774;28;20140;-75
2021/12/13 02:20:40;;;;;;;5.15;3.30;;;2.40;99.90;;;;;;5049083;28;20056;-75
2021/12/13 02:23:12;;;;;;;4.55;3.17;;;2.40;99.90;;;;;;5033942;28;20534;-75
2021/12/13 02:25:48;;;;;;;4.53;3.53;;;2.40;99.90;;;;;;5037831;28;20045;-75
2021/12/13 02:28:18;;;;;;;4.60;3.30;;;2.40;99.90;;;;;;5053286;28;20573;-75
2021/12/13 02:31:21;;;;;;;4.68;3.65;;;2.40;99.90;;;;;;5054738;28;20036;-74
2021/12/13 02:33:56;;;;;;;5.03;3.22;;;2.30;99.90;;;;;;5049828;28;20143;-75
2021/12/13 02:36:33;;;;;;;5.13;3.60;;;2.40;99.90;;;;;;5036613;28;20143;-75
2021/12/13 02:39:13;;;;;;;5.45;3.60;;;2.40;99.90;;;;;;5054104;28;20124;-75
2021/12/13 02:41:43;;;;;;;4.47;3.30;;;2.40;99.90;;;;;;5054037;28;20052;-75
2021/12/13 02:44:37;;;;;;;4.10;3.08;;;2.30;99.90;;;;;;5052621;28;20049;-75
2021/12/13 02:47:15;;;;;;;6.45;3.38;;;2.30;99.90;;;;;;5053024;28;20071;-75
2021/12/13 02:49:48;;;;;;;4.38;3.67;;;2.40;99.90;;;;;;5054531;28;20136;-75
2021/12/13 02:52:22;;;;;;;4.27;3.30;;;2.40;99.90;;;;;;5053068;28;20051;-74
2021/12/13 02:54:59;;;;;;;4.10;3.20;;;2.40;99.90;;;;;;5053232;28;20562;-74
2021/12/13 02:57:38;;;;;;;3.85;3.28;;;2.40;99.90;;;;;;5036992;28;20140;-75
2021/12/13 03:00:11;;;;;;;5.18;3.58;;;2.40;99.90;;;;;;5052923;28;20135;-75
2021/12/13 03:02:42;;;;;;;4.45;3.42;;;2.40;99.90;;;;;;5052942;28;20091;-75
2021/12/13 03:05:14;;;;;;;4.50;3.42;;;2.40;99.90;;;;;;5053113;28;20051;-75
2021/12/13 03:07:50;;;;;;;5.20;3.53;;;2.40;99.90;;;;;;5053973;28;20120;-75
2021/12/13 03:10:28;;;;;;;4.70;3.35;;;2.40;99.90;;;;;;5053410;28;20071;-75
2021/12/13 03:12:55;;;;;;;5.43;3.33;;;2.40;99.90;;;;;;5054035;28;20103;-75
2021/12/13 03:15:30;;;;;;;4.25;3.03;;;2.50;99.90;;;;;;5037017;28;20069;-75
2021/12/13 03:18:15;;;;;;;4.68;3.50;;;2.40;99.90;;;;;;5052928;28;20476;-75
2021/12/13 03:21:03;;;;;;;5.55;3.60;;;2.50;99.90;;;;;;5041474;28;20460;-74
2021/12/13 03:24:08;;;;;;;4.97;3.42;;;2.40;99.90;;;;;;5053975;28;20566;-74
2021/12/13 03:26:57;;;;;;;4.63;3.53;;;2.50;99.90;;;;;;5035881;28;20133;-75
2021/12/13 03:29:46;;;;;;;4.07;2.90;;;2.40;99.90;;;;;;5036109;28;20132;-75
2021/12/13 03:32:21;;;;;;;4.65;3.58;;;2.50;99.90;;;;;;5052542;28;20144;-75
2021/12/13 03:35:25;;;;;;;4.85;3.70;;;2.50;99.90;;;;;;5051019;28;20148;-75
2021/12/13 03:37:59;;;;;;;4.13;3.13;;;2.50;99.90;;;;;;5046737;28;20049;-75
2021/12/13 03:40:32;;;;;;;4.28;3.45;;;2.50;99.90;;;;;;5036384;28;20140;-74
2021/12/13 03:43:04;;;;;;;5.03;3.67;;;2.50;99.90;;;;;;5035567;28;20147;-75
2021/12/13 03:45:45;;;;;;;7.28;3.50;;;2.50;99.90;;;;;;5052007;28;20594;-75
2021/12/13 03:48:21;;;;;;;5.13;3.83;;;2.50;99.90;;;;;;5052034;28;20123;-75
2021/12/13 03:50:54;;;;;;;5.82;4.05;;;2.50;99.90;;;;;;5035395;28;20508;-74
2021/12/13 03:53:26;;;;;;;5.15;4.00;;;2.50;99.90;;;;;;5035623;28;20139;-75
2021/12/13 03:56:01;;;;;;;4.53;3.63;;;2.50;99.90;;;;;;5053594;28;20080;-75
2021/12/13 03:58:34;;;;;;;5.00;3.80;;;2.50;99.90;;;;;;5052939;28;20102;-75
2021/12/13 04:01:07;;;;;;;7.28;4.88;;;2.50;99.90;;;;;;5035222;28;20080;-75
2021/12/13 04:03:41;;;;;;;5.75;4.25;;;2.50;99.90;;;;;;5052974;28;20499;-75
2021/12/13 04:06:17;;;;;;;;;;;2.60;99.90;;;;;;5036077;28;20114;-75
2021/12/13 04:08:49;;;;;;;4.50;3.47;;;2.60;99.90;;;;;;5053009;28;19999;-75
2021/12/13 04:11:23;;;;;;;5.80;3.90;;;2.50;99.90;;;;;;5051798;28;20044;-75
2021/12/13 04:13:55;;;;;;;5.20;3.95;;;2.60;99.90;;;;;;5051829;28;20044;-75
2021/12/13 04:17:02;;;;;;;5.47;3.95;;;2.60;99.90;;;;;;5052471;28;20041;-75
2021/12/13 04:19:56;;;;;;;5.53;3.83;;;2.60;99.90;;;;;;5035730;28;20136;-75
2021/12/13 04:22:28;;;;;;;5.07;3.60;;;2.60;99.90;;;;;;5051337;28;20137;-75
2021/12/13 04:25:06;;;;;;;5.53;3.95;;;2.50;99.90;;;;;;5035015;28;20127;-75
2021/12/13 04:27:45;;;;;;;5.30;4.07;;;2.60;99.90;;;;;;5052318;28;20060;-74
2021/12/13 04:30:20;;;;;;;;;;;2.60;99.90;;;;;;5053273;28;20124;-75
2021/12/13 04:32:57;;;;;;;6.05;4.03;;;2.60;99.90;;;;;;5051252;28;19921;-75
2021/12/13 04:35:30;;;;;;;6.90;4.70;;;2.60;99.90;;;;;;5051514;28;20041;-75
2021/12/13 04:38:01;;;;;;;6.65;5.00;;;2.60;99.90;;;;;;5050665;28;20049;-75
2021/12/13 04:40:39;;;;;;;5.43;4.25;;;2.60;99.90;;;;;;5035368;28;20053;-75
2021/12/13 04:43:14;;;;;;;5.93;4.50;;;2.60;99.90;;;;;;5052256;28;20068;-75
2021/12/13 04:45:48;;;;;;;7.00;4.93;;;2.60;99.90;;;;;;5050576;28;20317;-75
2021/12/13 04:48:22;;;;;;;6.82;5.07;;;2.60;99.90;;;;;;5034091;28;20111;-75
2021/12/13 04:50:56;;;;;;;8.57;5.50;;;2.60;99.90;;;;;;5050520;28;20104;-74
2021/12/13 04:53:23;;;;;;;7.07;5.45;;;2.60;99.90;;;;;;5033696;28;20139;-75
2021/12/13 04:55:59;;;;;;;7.43;5.32;;;2.70;99.90;;;;;;5050270;28;20463;-75
2021/12/13 04:58:32;;;;;;;7.50;5.22;;;2.60;99.90;;;;;;5049987;28;20123;-75
2021/12/13 05:01:03;;;;;;;7.38;5.10;;;2.70;99.90;;;;;;5050394;28;20163;-77
2021/12/13 05:03:38;;;;;;;6.95;5.47;;;2.60;99.90;;;;;;5033398;28;20144;-75
2021/12/13 05:06:14;;;;;;;6.07;4.65;;;2.60;99.90;;;;;;5018504;28;20156;-76
2021/12/13 05:08:44;;;;;;;6.28;5.00;;;2.60;99.90;;;;;;5039121;28;20041;-75
2021/12/13 05:11:16;;;;;;;8.40;5.55;;;2.60;99.90;;;;;;5017267;28;20077;-76
2021/12/13 05:13:52;;;;;;;6.80;4.85;;;2.60;99.90;;;;;;5027409;28;20708;-75
2021/12/13 05:16:46;;;;;;;8.07;5.97;;;2.60;99.90;;;;;;5013086;28;20072;-75
2021/12/13 05:19:40;;;;;;;7.65;5.00;;;2.60;99.90;;;;;;5025964;28;20119;-75
2021/12/13 05:22:09;;;;;;;7.35;5.18;;;2.60;99.90;;;;;;5014419;28;20037;-75
2021/12/13 05:24:52;;;;;;;;;;;2.60;99.90;;;;;;5034916;28;20130;-75
2021/12/13 05:27:31;;;;;;;10.18;6.15;;;2.50;99.90;;;;;;5025555;28;19961;-75
2021/12/13 05:30:08;;;;;;;8.48;5.28;;;2.50;99.90;;;;;;5041093;28;20057;-74
2021/12/13 05:32:52;;;;;;;7.57;5.45;;;2.50;99.90;;;;;;5051163;28;20049;-75
2021/12/13 05:35:30;;;;;;;7.22;5.50;;;2.50;99.90;;;;;;5050117;28;20574;-75
2021/12/13 05:38:10;;;;;;;7.72;5.68;;;2.50;99.90;;;;;;5026416;28;20124;-75
2021/12/13 05:40:46;;;;;;;6.85;4.93;;;2.50;99.90;;;;;;5029814;28;20069;-75
2021/12/13 05:43:40;;;;;;;8.70;6.50;;;2.50;99.90;;;;;;5016042;28;20073;-75
2021/12/13 05:46:11;;;;;;;6.45;5.80;;;2.50;99.90;;;;;;5013719;28;20041;-75
2021/12/13 05:48:51;;;;;;;8.85;6.03;;;2.50;99.90;;;;;;5030555;28;20437;-75
2021/12/13 05:51:35;;;;;;;7.78;6.10;;;2.50;99.90;;;;;;5029060;28;20065;-75
2021/12/13 05:54:13;;;;;;;7.22;5.50;;;2.40;99.90;;;;;;5028296;28;20080;-75
2021/12/13 05:56:47;;;;;;;9.95;6.22;;;2.50;99.90;;;;;;5023528;28;20041;-74
2021/12/13 05:59:25;;;;;;;10.23;6.82;;;2.50;99.90;;;;;;5025212;28;20506;-75
2021/12/13 06:02:02;;;;;;;9.65;6.30;;;2.50;99.90;;;;;;5010161;28;20504;-75
2021/12/13 06:04:55;;;;;;;8.93;6.32;;;2.50;99.90;;;;;;5042896;28;20539;-74
2021/12/13 06:07:30;;;;;;;6.25;5.07;;;2.50;99.90;;;;;;5017697;28;20045;-74
2021/12/13 06:10:21;;;;;;;7.40;5.47;;;2.50;99.90;;;;;;5029810;28;20030;-75
2021/12/13 06:12:58;;;;;;;8.05;5.15;;;2.40;99.90;;;;;;5027241;28;20109;-74
2021/12/13 06:15:34;;;;;;;7.05;5.20;;;2.30;99.90;;;;;;5015035;28;20081;-74
2021/12/13 06:18:13;;;;;;;6.93;4.88;;;2.30;99.90;;;;;;5010581;28;20125;-75
2021/12/13 06:20:58;;;;;;;9.93;5.30;;;2.30;99.90;;;;;;5008822;28;20077;-74
2021/12/13 06:23:31;;;;;;;7.65;5.10;;;2.30;99.90;;;;;;4992927;28;20488;-75
2021/12/13 06:26:12;;;;;;;9.13;5.53;;;2.40;99.90;;;;;;5012467;28;20125;-75
2021/12/13 06:28:45;;;;;;;8.10;5.72;;;2.40;99.90;;;;;;5036562;28;20486;-75
2021/12/13 06:31:20;;;;;;;9.45;5.95;;;2.40;99.90;;;;;;4996863;28;20161;-75
2021/12/13 06:34:01;;;;;;;8.20;5.38;;;2.50;99.90;;;;;;5011592;28;20061;-75
2021/12/13 06:36:39;;;;;;;7.15;4.70;;;2.50;99.90;;;;;;5012926;28;20121;-75
2021/12/13 06:39:07;;;;;;;;;;;2.50;99.90;;;;;;5019714;28;20121;-74
2021/12/13 06:41:58;;;;;;;7.65;5.30;;;2.50;99.90;;;;;;5028823;28;20011;-75
2021/12/13 06:44:35;;;;;;;6.97;4.90;;;2.50;99.90;;;;;;5028935;28;20120;-74
2021/12/13 06:47:21;;;;;;;9.05;5.07;;;2.50;99.90;;;;;;5028588;28;20041;-74
2021/12/13 06:49:57;;;;;;;6.60;4.88;;;2.50;99.90;;;;;;5028851;28;20065;-75
2021/12/13 06:52:36;;;;;;;9.00;6.50;;;2.50;99.90;;;;;;5012384;28;20046;-75
2021/12/13 06:55:12;;;;;;;10.05;6.72;;;2.50;99.90;;;;;;5028918;28;20077;-74
2021/12/13 06:57:46;;;;;;;9.35;6.03;;;2.50;99.90;;;;;;5002266;28;20084;-75
2021/12/13 07:00:13;;;;;;;;;;;2.50;99.90;;;;;;5028603;28;20069;-74
2021/12/13 07:02:49;;;;;;;8.25;6.43;;;2.50;99.90;;;;;;5008958;28;19952;-75
2021/12/13 07:05:52;;;;;;;7.57;5.90;;;2.50;99.90;;;;;;5008999;28;20038;-75
2021/12/13 07:08:35;;;;;;;8.77;5.68;;;2.50;99.90;;;;;;5019295;28;20084;-75
2021/12/13 07:11:08;;;;;;;10.30;8.48;;;2.50;99.90;;;;;;5032322;28;20044;-75
2021/12/13 07:14:00;;;;;;;7.93;5.82;;;2.50;99.90;;;;;;5018035;28;20089;-75
2021/12/13 07:16:33;;;;;;;7.85;6.35;;;2.50;99.90;;;;;;5028759;28;20069;-75
2021/12/13 07:19:20;;;;;;;9.43;6.70;;;2.50;99.90;;;;;;5028019;28;20076;-75
2021/12/13 07:22:04;;;;;;;10.63;8.70;;;2.50;99.90;;;;;;5013602;28;20129;-75
2021/12/13 07:24:42;;;;;;;11.13;8.25;;;2.50;99.90;;;;;;5033251;28;20084;-75
2021/12/13 07:27:17;;;;;;;12.30;8.27;;;2.50;99.90;;;;;;5044135;28;20074;-75
2021/12/13 07:29:53;;;;;;;14.23;8.68;;;2.50;99.90;;;;;;5011803;28;20038;-74
2021/12/13 07:32:25;;;;;;;13.77;9.85;;;2.50;99.90;;;;;;5024338;28;20048;-75
2021/12/13 07:35:23;;;;;;;13.73;9.30;;;2.50;99.90;;;;;;5051578;28;20092;-75
2021/12/13 07:37:52;;;;;;;13.43;8.40;;;2.50;99.90;;;;;;5011729;28;20050;-75
2021/12/13 07:40:44;;;;;;;13.18;8.15;;;2.50;99.90;;;;;;5013343;28;20162;-75
2021/12/13 07:43:29;;;;;;;11.27;7.55;;;2.50;99.90;;;;;;5013175;28;20469;-75
2021/12/13 07:46:06;;;;;;;9.80;7.10;;;2.50;99.90;;;;;;5028305;28;20124;-75
2021/12/13 07:48:55;;;;;;;9.30;6.50;;;2.50;99.90;;;;;;5018771;28;20068;-75
2021/12/13 07:51:27;;;;;;;8.90;6.03;;;2.50;99.90;;;;;;5022687;28;20088;-75
2021/12/13 07:53:59;;;;;;;20.40;14.35;;;2.50;99.90;;;;;;5013997;28;20419;-75
2021/12/13 07:56:36;;;;;;;8.50;6.00;;;2.50;99.90;;;;;;5029516;28;20128;-75
2021/12/13 07:59:09;;;;;;;8.17;5.10;;;2.50;99.90;;;;;;5012303;28;20056;-75
2021/12/13 08:01:58;;;;;;;7.82;5.28;;;2.50;99.90;;;;;;5024806;28;20354;-75
2021/12/13 08:04:55;;;;;;;8.55;6.00;;;2.50;99.90;;;;;;5000871;28;20136;-75
2021/12/13 08:07:45;;;;;;;8.77;5.80;;;2.50;99.90;;;;;;5031072;28;20075;-75
2021/12/13 08:10:21;;;;;;;;;;;2.60;99.90;;;;;;5032067;28;20037;-75
2021/12/13 08:13:00;;;;;;;7.90;5.63;;;2.70;99.90;;;;;;5028511;28;19963;-75
2021/12/13 08:15:39;;;;;;;10.07;6.40;;;2.70;99.90;;;;;;5010357;28;20146;-75
2021/12/13 08:18:27;;;;;;;9.38;6.35;;;2.80;99.90;;;;;;5023623;28;20100;-75
2021/12/13 08:21:03;;;;;;;13.18;7.78;;;2.80;99.90;;;;;;5040287;28;20152;-74
2021/12/13 08:23:51;;;;;;;11.50;7.32;;;2.80;99.90;;;;;;5051124;28;20127;-75
2021/12/13 08:26:35;;;;;;;10.27;6.60;;;2.90;99.90;;;;;;5051274;28;20571;-75
2021/12/13 08:29:21;;;;;;;11.60;7.53;;;2.90;99.90;;;;;;5027647;28;20092;-75
2021/12/13 08:31:52;;;;;;;13.57;7.95;;;2.90;99.90;;;;;;5033118;28;20045;-75
2021/12/13 08:34:32;;;;;;;11.60;7.35;;;3.00;99.90;;;;;;5029417;28;20103;-75
2021/12/13 08:37:16;;;;;;;11.43;7.93;;;3.00;99.90;;;;;;5030946;28;20112;-75
2021/12/13 08:39:55;;;;;;;11.97;7.37;;;3.00;99.90;;;;;;5019499;28;20038;-75
2021/12/13 08:42:31;;;;;;;11.32;7.10;;;3.00;99.90;;;;;;5024760;28;20140;-75
2021/12/13 08:45:20;;;;;;;13.05;8.25;;;3.00;99.90;;;;;;5017240;28;20123;-75
2021/12/13 08:47:52;;;;;;;;;;;3.00;99.90;;;;;;5050623;28;20128;-75
2021/12/13 08:50:41;;;;;;;11.70;7.85;;;3.10;99.90;;;;;;5028829;28;20009;-75
2021/12/13 08:53:19;;;;;;;13.85;7.90;;;3.10;99.90;;;;;;5014266;28;20132;-75
2021/12/13 08:55:57;;;;;;;12.27;8.80;;;3.10;99.90;;;;;;5027751;28;20129;-75
2021/12/13 08:58:25;;;;;;;13.23;7.60;;;3.20;99.90;;;;;;5027351;28;20420;-75
2021/12/13 09:01:04;;;;;;;12.00;7.38;;;3.20;99.90;;;;;;5012485;28;20117;-75
2021/12/13 09:03:46;;;;;;;12.60;8.13;;;3.20;99.90;;;;;;5021772;28;20125;-74
2021/12/13 09:06:16;;;;;;;13.82;7.70;;;3.30;99.90;;;;;;5029167;28;20128;-75
2021/12/13 09:09:00;;;;;;;12.40;7.75;;;3.30;99.90;;;;;;5010852;28;20037;-75
2021/12/13 09:11:56;;;;;;;14.00;9.02;;;3.30;99.90;;;;;;5027424;28;20076;-75
2021/12/13 09:14:39;;;;;;;12.98;8.40;;;3.30;99.90;;;;;;5028815;28;20033;-74
2021/12/13 09:17:16;;;;;;;12.02;7.78;;;3.40;99.90;;;;;;5010831;28;20077;-75
2021/12/13 09:19:48;;;;;;;11.38;7.30;;;3.40;99.90;;;;;;5011027;28;20137;-75
2021/12/13 09:22:19;;;;;;;15.38;8.65;;;3.40;99.90;;;;;;5026748;28;20178;-75
2021/12/13 09:24:46;;;;;;;11.40;8.15;;;3.40;99.90;;;;;;5026412;28;20483;-75
2021/12/13 09:27:38;;;;;;;17.13;9.55;;;3.50;99.90;;;;;;5048610;28;20046;-75
2021/12/13 09:30:13;;;;;;;15.55;9.63;;;3.50;99.90;;;;;;5030826;28;20090;-75
2021/12/13 09:32:50;;;;;;;16.17;9.55;;;3.60;99.90;;;;;;5026211;28;20046;-75
2021/12/13 09:35:39;;;;;;;18.63;11.25;;;3.60;99.90;;;;;;5040691;28;20076;-75
2021/12/13 09:38:31;;;;;;;20.47;12.20;;;3.60;99.90;;;;;;5010395;28;20050;-78
2021/12/13 09:41:15;;;;;;;20.45;12.77;;;3.70;99.90;;;;;;5019561;28;20049;-75
2021/12/13 09:43:53;;;;;;;22.05;14.18;;;3.80;99.90;;;;;;5026460;28;20469;-75
2021/12/13 09:47:00;;;;;;;24.48;13.50;;;3.80;99.90;;;;;;5012970;28;20041;-74
2021/12/13 09:49:45;;;;;;;25.67;16.08;;;3.90;99.90;;;;;;5028778;28;20120;-75
2021/12/13 09:52:43;;;;;;;43.65;25.77;;;3.90;99.90;;;;;;5015699;28;20468;-75
2021/12/13 09:55:28;;;;;;;24.27;16.70;;;3.90;99.90;;;;;;5029958;28;20122;-75
2021/12/13 09:58:09;;;;;;;28.25;20.08;;;4.10;99.90;;;;;;5028711;28;20284;-75
2021/12/13 10:00:54;;;;;;;29.42;19.27;;;4.20;99.90;;;;;;5036285;28;20045;-75
2021/12/13 10:03:31;;;;;;;24.48;16.05;;;4.20;99.90;;;;;;5022065;28;20128;-75
2021/12/13 10:06:02;;;;;;;25.85;15.13;;;4.30;99.90;;;;;;5028891;28;20072;-75
2021/12/13 10:08:42;;;;;;;19.85;12.38;;;4.30;99.90;;;;;;5028538;28;20132;-75
2021/12/13 10:11:19;;;;;;;22.83;15.00;;;4.30;99.90;;;;;;5013995;28;20047;-75
2021/12/13 10:13:46;;;;;;;20.45;12.88;;;4.40;99.90;;;;;;5031785;28;20069;-75
2021/12/13 10:16:31;;;;;;;17.67;11.50;;;4.40;99.90;;;;;;5036802;28;20059;-75
2021/12/13 10:18:58;;;;;;;17.88;11.20;;;4.50;99.90;;;;;;5040858;28;20333;-75
2021/12/13 10:21:28;;;;;;;15.48;10.38;;;4.50;99.90;;;;;;5044852;28;20091;-75
2021/12/13 10:24:04;;;;;;;15.25;10.57;;;4.50;99.90;;;;;;5032578;28;20510;-75
2021/12/13 10:26:41;;;;;;;13.82;10.23;;;4.50;99.90;;;;;;5039749;28;20059;-75
2021/12/13 10:29:14;;;;;;;12.40;8.65;;;4.50;99.90;;;;;;5028485;28;20041;-75
2021/12/13 10:31:53;;;;;;;16.42;10.30;;;4.60;99.90;;;;;;5030672;28;20110;-75
2021/12/13 10:34:28;;;;;;;;;;;4.90;99.90;;;;;;5017696;28;20132;-75
2021/12/13 10:37:04;;;;;;;15.90;10.23;;;5.00;99.90;;;;;;5007905;28;20020;-75
2021/12/13 10:39:45;;;;;;;16.60;11.25;;;4.90;99.90;;;;;;5020034;28;20074;-75
2021/12/13 10:42:20;;;;;;;17.40;10.32;;;4.90;99.90;;;;;;5009548;28;20472;-75
2021/12/13 10:44:47;;;;;;;15.98;10.15;;;4.90;99.90;;;;;;5031978;28;20402;-75
2021/12/13 10:47:28;;;;;;;16.50;10.30;;;4.80;99.90;;;;;;5021079;28;20521;-75
2021/12/13 10:50:02;;;;;;;15.38;10.10;;;4.80;99.90;;;;;;5014585;28;20120;-74
2021/12/13 10:52:37;;;;;;;18.83;10.90;;;4.70;99.90;;;;;;4999276;28;20152;-75
2021/12/13 10:55:14;;;;;;;14.85;10.40;;;4.80;99.90;;;;;;5023132;28;20049;-75
2021/12/13 10:57:48;;;;;;;19.05;10.32;;;4.80;99.90;;;;;;5032520;28;20133;-75
2021/12/13 11:00:20;;;;;;;14.20;10.23;;;4.80;99.90;;;;;;5032637;28;20137;-75
2021/12/13 11:02:53;;;;;;;18.67;10.75;;;4.80;99.90;;;;;;5032118;28;20475;-75
2021/12/13 11:05:28;;;;;;;15.85;10.30;;;4.90;99.90;;;;;;5034415;28;20045;-75
2021/12/13 11:08:01;;;;;;;16.45;11.80;;;5.00;99.90;;;;;;5023583;28;20120;-75
2021/12/13 11:10:39;;;;;;;15.13;11.25;;;5.00;99.90;;;;;;5012944;28;20050;-75
2021/12/13 11:13:07;;;;;;;19.13;13.13;;;5.00;99.90;;;;;;5014180;28;20464;-75
2021/12/13 11:15:37;;;;;;;21.05;12.80;;;5.10;99.90;;;;;;5015496;28;20476;-75
2021/12/13 11:18:11;;;;;;;18.30;11.57;;;5.00;99.90;;;;;;5044408;28;20504;-74
2021/12/13 11:20:49;;;;;;;15.98;10.55;;;5.00;99.90;;;;;;5009896;28;20048;-75
2021/12/13 11:23:22;;;;;;;15.02;9.80;;;4.90;99.90;;;;;;5027768;28;20129;-75
2021/12/13 11:25:58;;;;;;;14.70;9.55;;;5.00;99.90;;;;;;5028215;28;20044;-75
2021/12/13 11:28:25;;;;;;;;;;;5.00;99.90;;;;;;5037892;28;20127;-75
2021/12/13 11:30:57;;;;;;;16.15;10.45;;;5.00;99.90;;;;;;5014205;28;19928;-75
2021/12/13 11:33:38;;;;;;;18.65;12.38;;;5.00;99.90;;;;;;5031881;28;20555;-75
2021/12/13 11:36:10;;;;;;;18.80;10.48;;;5.00;99.90;;;;;;5032978;28;20140;-75
2021/12/13 11:39:09;;;;;;;18.08;11.50;;;5.00;99.90;;;;;;5016222;28;20592;-75
2021/12/13 11:42:04;;;;;;;18.85;11.55;;;5.00;99.90;;;;;;5033352;28;20076;-75
2021/12/13 11:44:52;;;;;;;16.88;10.25;;;5.00;99.90;;;;;;5012196;28;20144;-75
2021/12/13 11:48:19;;;;;;;28.30;15.57;;;5.10;99.90;;;;;;5039945;28;20049;-75
2021/12/13 11:51:30;;;;;;;25.75;16.73;;;5.10;99.90;;;;;;4975182;28;20093;-75
2021/12/13 11:54:34;;;;;;;17.45;10.40;;;5.10;99.90;;;;;;5015769;28;20049;-75
2021/12/13 11:57:39;;;;;;;15.18;9.55;;;5.10;99.90;;;;;;5014071;28;20041;-74
2021/12/13 12:00:36;;;;;;;115.22;68.20;;;5.10;99.90;;;;;;5003632;28;20056;-74
2021/12/13 12:03:41;;;;;;;64.97;37.13;;;5.10;99.90;;;;;;5031431;28;20057;-74
2021/12/13 12:06:28;;;;;;;59.35;32.33;;;5.10;99.90;;;;;;5022546;28;20038;-74
2021/12/13 12:09:24;;;;;;;28.08;15.30;;;5.10;99.90;;;;;;5039729;28;20133;-74
2021/12/13 12:12:36;;;;;;;50.35;27.90;;;5.10;99.90;;;;;;5015452;28;20132;-74
2021/12/13 12:15:06;;;;;;;32.97;19.20;;;5.10;99.90;;;;;;5015742;28;20060;-74
2021/12/13 12:17:39;;;;;;;28.45;16.98;;;5.10;99.90;;;;;;5015935;28;20129;-74
2021/12/13 12:20:18;;;;;;;24.60;14.23;;;5.10;99.90;;;;;;5051553;28;20128;-74
2021/12/13 12:23:03;;;;;;;19.75;11.40;;;5.10;99.90;;;;;;5051187;28;20136;-74
2021/12/13 12:25:33;;;;;;;22.73;11.88;;;5.10;99.90;;;;;;5041833;28;20076;-74
2021/12/13 12:28:08;;;;;;;25.58;12.88;;;5.00;99.90;;;;;;5043127;28;20131;-74
2021/12/13 12:30:48;;;;;;;24.13;14.07;;;5.00;99.90;;;;;;4995968;28;20034;-74
2021/12/13 12:33:28;;;;;;;22.55;12.95;;;5.00;99.90;;;;;;5023203;28;20045;-74
2021/12/13 12:35:56;;;;;;;20.80;12.77;;;5.00;99.90;;;;;;5031098;28;20096;-74
2021/12/13 12:38:56;;;;;;;21.92;13.00;;;5.00;99.90;;;;;;5030118;28;20065;-74
2021/12/13 12:41:45;;;;;;;35.97;12.68;;;5.00;99.90;;;;;;5019319;28;20149;-74
2021/12/13 12:44:31;;;;;;;46.72;19.95;;;4.90;99.90;;;;;;4995376;28;20038;-74
2021/12/13 12:47:03;;;;;;;58.50;25.30;;;4.90;99.90;;;;;;4992274;28;20108;-74
2021/12/13 12:49:30;;;;;;;42.25;21.95;;;4.90;99.90;;;;;;5009914;28;20141;-74
2021/12/13 12:52:05;;;;;;;38.65;18.13;;;4.90;99.90;;;;;;5028398;28;20048;-74
2021/12/13 12:54:37;;;;;;;33.75;16.63;;;5.00;99.90;;;;;;5011430;28;20132;-74
2021/12/13 12:57:09;;;;;;;29.42;17.05;;;5.00;99.90;;;;;;5024849;28;20116;-74
2021/12/13 12:59:39;;;;;;;29.58;15.73;;;5.00;99.90;;;;;;5042228;28;20068;-74
2021/12/13 13:02:16;;;;;;;60.10;13.13;;;5.00;99.90;;;;;;5030519;28;20079;-74
2021/12/13 13:04:50;;;;;;;22.33;10.60;;;5.00;99.90;;;;;;5030708;28;20472;-73
2021/12/13 13:07:17;;;;;;;17.38;11.10;;;4.90;99.90;;;;;;5029606;28;20475;-74
2021/12/13 13:13:06;;;;;;;18.85;10.25;;;4.90;99.90;;;;;;5010297;28;20034;-74
2021/12/13 13:15:48;;;;;;;24.10;10.65;;;4.90;99.90;;;;;;4998510;28;20042;-74
2021/12/13 13:18:25;;;;;;;20.15;11.38;;;5.00;99.90;;;;;;5036077;28;20590;-73
2021/12/13 13:20:58;;;;;;;19.65;10.90;;;5.00;99.90;;;;;;5024314;28;20128;-74
2021/12/13 13:23:33;;;;;;;22.40;10.20;;;5.00;99.90;;;;;;5029692;28;20089;-73
2021/12/13 13:26:06;;;;;;;22.95;10.40;;;5.00;99.90;;;;;;5029765;28;20118;-74
2021/12/13 13:28:42;;;;;;;45.83;11.45;;;5.00;99.90;;;;;;5013787;28;20042;-74
2021/12/13 13:31:14;;;;;;;13.98;8.07;;;5.00;99.90;;;;;;4994094;28;20074;-74
2021/12/13 13:33:54;;;;;;;21.90;11.60;;;5.00;99.90;;;;;;5009894;28;20126;-74
2021/12/13 13:36:28;;;;;;;21.27;11.20;;;4.90;99.90;;;;;;5010097;28;20041;-73
2021/12/13 13:39:11;;;;;;;29.80;11.80;;;5.00;99.90;;;;;;5009877;28;20084;-74
2021/12/13 13:41:38;;;;;;;33.33;11.98;;;4.90;99.90;;;;;;5010097;28;20580;-74
2021/12/13 13:44:13;;;;;;;27.63;11.63;;;4.90;99.90;;;;;;5010070;28;20049;-74
2021/12/13 13:46:40;;;;;;;18.63;11.20;;;4.90;99.90;;;;;;5009729;28;20132;-74
2021/12/13 13:49:19;;;;;;;16.60;9.65;;;4.90;99.90;;;;;;4994015;28;20504;-74
2021/12/13 13:51:47;;;;;;;15.38;7.80;;;5.00;99.90;;;;;;4995342;28;20092;-74
2021/12/13 13:54:14;;;;;;;11.95;6.97;;;5.00;99.90;;;;;;4992903;28;20096;-74
2021/12/13 13:56:46;;;;;;;12.85;8.00;;;5.00;99.90;;;;;;5026271;28;20136;-74
2021/12/13 13:59:20;;;;;;;13.70;8.02;;;5.00;99.90;;;;;;5009580;28;20480;-75
2021/12/13 14:01:49;;;;;;;;;;;5.00;99.90;;;;;;5043081;28;20076;-74
2021/12/13 14:04:22;;;;;;;;;;;5.00;99.90;;;;;;5019433;28;19927;-74
2021/12/13 14:07:17;;;;;;;12.07;6.20;;;4.90;99.90;;;;;;5028992;28;20020;-74